createdAt,value
2018-07-12T20:27:40.367Z,24.00
2018-07-12T20:28:45.128Z,26.00
2018-07-12T20:29:48.013Z,26.00
2018-07-12T20:30:53.661Z,25.00
2018-07-12T20:31:57.105Z,25.00
2018-07-12T20:33:00.041Z,25.50
2018-07-12T20:34:03.798Z,21.00
2018-07-12T20:35:07.396Z,22.00
2018-07-12T20:36:11.255Z,22.00
2018-07-12T20:37:15.919Z,21.00
2018-07-12T20:38:19.358Z,20.75
2018-07-12T20:39:23.800Z,20.50
2018-07-12T20:40:28.706Z,21.75
2018-07-12T20:41:33.237Z,18.00
2018-07-12T20:42:38.215Z,20.75
2018-07-12T20:43:41.068Z,18.25
2018-07-12T20:44:43.925Z,19.75
2018-07-12T20:45:47.323Z,20.25
2018-07-12T20:46:54.680Z,19.00
2018-07-12T20:47:57.868Z,20.00
2018-07-12T20:49:01.782Z,18.00
2018-07-12T20:50:05.393Z,18.00
2018-07-12T20:51:09.207Z,20.25
2018-07-12T20:52:13.038Z,17.50
2018-07-12T20:53:17.930Z,18.25
2018-07-12T20:54:21.680Z,21.75
2018-07-12T20:55:31.160Z,17.75
2018-07-12T20:56:35.617Z,18.00
2018-07-12T20:57:38.538Z,17.50
2018-07-12T20:58:41.445Z,17.25
2018-07-12T20:59:44.938Z,17.75
2018-07-12T21:00:47.741Z,17.50
2018-07-12T21:01:54.556Z,16.75
2018-07-12T21:02:57.995Z,16.75
2018-07-12T21:04:01.186Z,13.75
2018-07-12T21:05:04.255Z,14.00
2018-07-12T21:06:08.340Z,22.00
2018-07-12T21:07:11.261Z,17.25
2018-07-12T21:08:14.866Z,17.75
2018-07-12T21:09:17.662Z,17.00
2018-07-12T21:10:22.456Z,19.00
2018-07-12T21:11:25.288Z,16.25
2018-07-12T21:13:42.729Z,17.00
2018-07-12T21:14:47.771Z,16.50
2018-07-12T21:15:55.227Z,17.25
2018-07-12T21:16:58.882Z,17.75
2018-07-12T21:18:03.145Z,16.50
2018-07-12T21:19:07.929Z,16.75
2018-07-12T21:20:12.119Z,17.25
2018-07-12T21:22:24.489Z,17.50
2018-07-12T21:23:27.342Z,17.00
2018-07-12T21:24:33.875Z,15.75
2018-07-12T21:25:37.019Z,19.00
2018-07-12T21:26:39.886Z,22.00
2018-07-12T21:27:43.491Z,24.00
2018-07-12T21:28:47.478Z,21.00
2018-07-12T21:29:51.095Z,24.75
2018-07-12T21:30:54.559Z,25.00
2018-07-12T21:31:57.678Z,21.00
2018-07-12T21:33:01.087Z,21.00
2018-07-12T21:34:04.695Z,20.50
2018-07-12T21:35:07.911Z,20.00
2018-07-12T21:36:15.273Z,20.50
2018-07-12T21:37:18.741Z,19.00
2018-07-12T21:38:21.848Z,17.25
2018-07-12T21:39:24.619Z,18.00
2018-07-12T21:40:27.435Z,20.50
2018-07-12T21:41:30.255Z,20.25
2018-07-12T21:42:33.776Z,17.25
2018-07-12T21:43:45.489Z,20.00
2018-07-12T21:44:50.064Z,19.25
2018-07-12T21:45:54.870Z,20.50
2018-07-12T21:46:58.560Z,19.50
2018-07-12T21:48:04.627Z,23.50
2018-07-12T21:49:07.672Z,20.25
2018-07-12T21:50:13.644Z,21.25
2018-07-12T21:51:16.720Z,20.00
2018-07-12T21:52:20.217Z,19.75
2018-07-12T21:53:24.802Z,20.50
2018-07-12T21:54:29.514Z,18.00
2018-07-12T21:55:33.499Z,18.25
2018-07-12T21:56:39.035Z,19.25
2018-07-12T21:57:42.536Z,20.00
2018-07-12T21:58:46.747Z,20.50
2018-07-12T21:59:51.110Z,18.75
2018-07-12T22:00:55.034Z,18.75
2018-07-12T22:02:00.649Z,19.25
2018-07-12T22:03:05.220Z,18.50
2018-07-12T22:04:09.495Z,18.50
2018-07-12T22:05:13.209Z,19.50
2018-07-12T22:06:23.839Z,19.75
2018-07-12T22:07:26.671Z,18.50
2018-07-12T22:08:31.093Z,18.25
2018-07-12T22:09:37.785Z,18.00
2018-07-12T22:10:43.049Z,19.75
2018-07-12T22:11:46.475Z,20.25
2018-07-12T22:12:49.324Z,17.75
2018-07-12T22:13:52.320Z,16.75
2018-07-12T22:14:56.694Z,17.00
2018-07-12T22:16:02.681Z,19.50
2018-07-12T22:17:07.455Z,18.25
2018-07-12T22:18:12.142Z,20.00
2018-07-12T22:19:19.416Z,18.75
2018-07-12T22:20:22.883Z,17.00
2018-07-12T22:21:25.914Z,18.25
2018-07-12T22:22:29.610Z,19.50
2018-07-12T22:23:32.417Z,20.00
2018-07-12T22:24:36.521Z,16.25
2018-07-12T22:25:41.270Z,19.50
2018-07-12T22:26:44.880Z,18.75
2018-07-12T22:27:48.631Z,19.25
2018-07-12T22:28:52.613Z,18.25
2018-07-12T22:29:55.774Z,19.75
2018-07-12T22:31:00.379Z,19.50
2018-07-12T22:32:03.626Z,17.75
2018-07-12T22:33:09.326Z,20.75
2018-07-12T22:34:12.225Z,21.00
2018-07-12T22:35:16.240Z,20.50
2018-07-12T22:36:19.763Z,20.00
2018-07-12T22:37:22.587Z,20.00
2018-07-12T22:38:25.423Z,22.25
2018-07-12T22:39:28.260Z,20.25
2018-07-12T22:40:31.311Z,20.00
2018-07-12T22:41:34.571Z,20.00
2018-07-12T22:42:39.965Z,20.25
2018-07-12T22:43:42.969Z,21.00
2018-07-12T22:44:46.401Z,20.00
2018-07-12T22:45:55.058Z,19.75
2018-07-12T22:46:59.351Z,19.25
2018-07-12T22:48:02.672Z,21.00
2018-07-12T22:49:05.740Z,20.50
2018-07-12T22:50:08.663Z,21.00
2018-07-12T22:51:21.639Z,19.50
2018-07-12T22:52:27.332Z,19.00
2018-07-12T22:53:31.405Z,22.50
2018-07-12T22:54:40.336Z,20.75
2018-07-12T22:56:02.759Z,20.00
2018-07-12T22:57:05.580Z,22.00
2018-07-12T22:58:08.415Z,20.00
2018-07-12T22:59:14.859Z,22.25
2018-07-12T23:00:17.691Z,20.00
2018-07-12T23:01:20.818Z,24.00
2018-07-12T23:02:23.662Z,22.25
2018-07-12T23:03:27.871Z,21.00
2018-07-12T23:04:32.240Z,22.25
2018-07-12T23:05:36.692Z,20.75
2018-07-12T23:06:39.547Z,22.75
2018-07-12T23:07:42.722Z,22.00
2018-07-12T23:08:48.593Z,21.75
2018-07-12T23:09:51.993Z,22.25
2018-07-12T23:10:58.699Z,22.75
2018-07-12T23:12:02.852Z,20.50
2018-07-12T23:13:05.762Z,20.50
2018-07-12T23:14:08.559Z,22.00
2018-07-12T23:15:11.514Z,21.75
2018-07-12T23:16:14.983Z,21.00
2018-07-12T23:17:19.470Z,23.75
2018-07-12T23:18:23.454Z,22.50
2018-07-12T23:19:26.319Z,23.75
2018-07-12T23:20:29.645Z,20.25
2018-07-12T23:21:36.305Z,22.00
2018-07-12T23:22:39.139Z,22.50
2018-07-12T23:23:42.832Z,21.75
2018-07-12T23:24:46.902Z,21.75
2018-07-12T23:25:49.833Z,20.00
2018-07-12T23:26:52.884Z,22.25
2018-07-12T23:27:56.682Z,21.00
2018-07-12T23:29:00.778Z,21.75
2018-07-12T23:30:07.232Z,20.00
2018-07-12T23:31:10.382Z,20.75
2018-07-12T23:32:13.200Z,20.25
2018-07-12T23:33:16.616Z,18.50
2018-07-12T23:34:19.419Z,22.50
2018-07-12T23:35:22.201Z,20.00
2018-07-12T23:36:25.039Z,21.75
2018-07-12T23:37:28.207Z,19.25
2018-07-12T23:38:31.309Z,21.75
2018-07-12T23:39:34.181Z,19.75
2018-07-12T23:40:37.218Z,20.25
2018-07-12T23:41:40.091Z,21.75
2018-07-12T23:42:43.415Z,22.25
2018-07-12T23:43:46.215Z,20.25
2018-07-12T23:44:49.417Z,22.75
2018-07-12T23:45:52.306Z,22.50
2018-07-12T23:46:55.205Z,23.50
2018-07-12T23:47:58.974Z,20.00
2018-07-12T23:49:03.421Z,21.25
2018-07-12T23:50:06.242Z,22.25
2018-07-12T23:51:10.599Z,19.75
2018-07-12T23:52:13.622Z,21.75
2018-07-12T23:53:17.039Z,22.00
2018-07-12T23:54:19.850Z,22.00
2018-07-12T23:55:23.018Z,22.50
2018-07-12T23:56:26.693Z,19.75
2018-07-12T23:57:29.640Z,22.75
2018-07-12T23:58:32.423Z,20.75
2018-07-12T23:59:38.836Z,20.75
